Time;durP1;ratioP1;P1;durP2;ratioP2;P2;SDS_P1;SDS_P2;PMS_P1;PMS_P2;Temp;Humidity;BMP_temperature;BMP_pressure;BME280_temperature;BME280_humidity;BME280_pressure;Samples;Min_cycle;Max_cycle;Signal;HPM_P1;HPM_P2
2021/08/25 00:02:22;;;;;;;;;6.00;6.00;;;;;20.85;43.78;101952.53;5078665;28;45264;-86
2021/08/25 00:04:47;;;;;;;;;6.75;6.25;;;;;20.85;43.59;101957.81;5079377;27;45433;-86
2021/08/25 00:07:13;;;;;;;;;7.50;6.00;;;;;20.82;43.58;101957.72;5081018;27;45937;-86
2021/08/25 00:09:40;;;;;;;;;6.00;5.00;;;;;20.80;43.93;101944.56;5080581;28;45363;-86
2021/08/25 00:12:08;;;;;;;;;7.00;7.00;;;;;20.80;43.73;101954.19;5080082;27;45330;-85
2021/08/25 00:14:38;;;;;;;;;5.50;5.50;;;;;20.77;43.59;101947.13;5080840;28;45334;-85
2021/08/25 00:17:04;;;;;;;;;6.50;6.50;;;;;20.75;43.63;101953.22;5079494;28;46153;-85
2021/08/25 00:19:30;;;;;;;;;7.25;5.25;;;;;20.72;43.92;101936.47;5079247;28;45909;-85
2021/08/25 00:21:56;;;;;;;;;7.00;7.00;;;;;20.71;44.09;101929.41;5078872;28;45352;-85
2021/08/25 00:24:22;;;;;;;;;6.00;6.00;;;;;20.71;44.15;101936.44;5078610;27;45318;-85
2021/08/25 00:26:47;;;;;;;;;6.25;5.00;;;;;20.71;44.02;101929.41;5078568;27;46279;-85
2021/08/25 00:29:14;;;;;;;;;5.00;4.75;;;;;20.69;44.50;101928.50;5078861;28;45228;-85
2021/08/25 00:31:40;;;;;;;;;8.00;7.00;;;;;20.66;44.50;101928.44;5078915;28;45367;-85
2021/08/25 00:34:07;;;;;;;;;5.75;5.50;;;;;20.62;43.87;101926.59;5079678;28;45197;-85
2021/08/25 00:36:32;;;;;;;;;7.75;6.00;;;;;20.59;44.11;101925.66;5079012;28;45476;-85
2021/08/25 00:38:58;;;;;;;;;7.50;5.50;;;;;20.58;43.69;101924.75;5079321;28;45387;-86
2021/08/25 00:41:23;;;;;;;;;5.75;5.00;;;;;20.54;44.11;101917.66;5078936;28;45424;-86
2021/08/25 00:43:49;;;;;;;;;6.00;5.25;;;;;20.52;44.81;101922.00;5078673;27;45326;-85
2021/08/25 00:46:16;;;;;;;;;6.75;5.50;;;;;20.48;44.32;101917.50;5077970;28;45318;-86
2021/08/25 00:48:46;;;;;;;;;5.75;5.75;;;;;20.48;44.21;101920.13;5078565;28;45813;-86
2021/08/25 00:51:13;;;;;;;;;4.75;4.75;;;;;20.45;44.40;101920.97;5079079;27;45396;-86
2021/08/25 00:53:40;;;;;;;;;8.50;6.00;;;;;20.41;44.64;101919.13;5081224;28;45558;-85
2021/08/25 00:56:06;;;;;;;;;7.50;6.25;;;;;20.38;45.23;101919.06;5085008;27;45356;-85
2021/08/25 00:58:36;;;;;;;;;10.25;7.00;;;;;20.38;44.86;101919.94;5065929;28;45758;-86
2021/08/25 01:01:08;;;;;;;;;7.00;6.75;;;;;20.37;45.04;101915.53;5080458;28;45435;-86
2021/08/25 01:03:54;;;;;;;;;7.25;6.00;;;;;20.38;45.07;101914.69;5064489;27;45164;-85
2021/08/25 01:06:24;;;;;;;;;4.00;4.00;;;;;20.34;44.71;101909.31;5077686;28;45870;-86
2021/08/25 01:08:50;;;;;;;;;9.25;6.75;;;;;20.31;45.14;101912.78;5077937;28;45673;-85
2021/08/25 01:11:16;;;;;;;;;6.50;6.50;;;;;20.28;45.66;101906.56;5077953;28;45379;-86
2021/08/25 01:13:42;;;;;;;;;5.25;5.25;;;;;20.28;44.88;101919.72;5078244;28;45329;-86
2021/08/25 01:16:08;;;;;;;;;8.75;5.50;;;;;20.27;45.02;101905.66;5077592;28;46360;-86
2021/08/25 01:18:38;;;;;;;;;5.25;5.00;;;;;20.25;45.18;101908.28;5077330;27;45735;-86
2021/08/25 01:21:05;;;;;;;;;7.00;7.00;;;;;20.23;44.90;101902.09;5060421;28;45466;-86
2021/08/25 01:23:38;;;;;;;;;6.25;5.00;;;;;20.23;45.03;101898.59;5076758;28;45338;-85
2021/08/25 01:26:03;;;;;;;;;5.75;4.25;;;;;20.21;45.56;101909.06;5077516;28;46389;-85
2021/08/25 01:28:35;;;;;;;;;4.50;3.75;;;;;20.21;45.74;101902.91;5078038;28;45458;-85
2021/08/25 01:31:02;;;;;;;;;6.25;6.25;;;;;20.22;45.26;101902.94;5061999;28;45520;-85
2021/08/25 01:33:29;;;;;;;;;6.00;6.00;;;;;20.22;45.64;101897.69;5079118;28;45499;-86
2021/08/25 01:35:55;;;;;;;;;6.25;4.75;;;;;20.19;45.72;101896.72;5077316;28;45376;-86
2021/08/25 01:38:47;;;;;;;;;5.25;4.50;;;;;20.15;45.33;101902.75;5075717;28;45341;-86
2021/08/25 01:41:12;;;;;;;;;8.25;5.50;;;;;20.12;45.47;101895.69;5077797;27;45401;-86
2021/08/25 01:43:38;;;;;;;;;5.50;5.50;;;;;20.16;45.76;101909.78;5077347;28;45332;-86
2021/08/25 01:46:03;;;;;;;;;4.25;4.00;;;;;20.14;45.68;101904.50;5077053;28;45358;-86
2021/08/25 01:48:33;;;;;;;;;7.25;5.75;;;;;20.13;45.64;101897.47;5076975;28;45343;-86
2021/08/25 01:50:59;;;;;;;;;6.00;6.00;;;;;20.11;45.94;101901.81;5077964;28;45239;-85
2021/08/25 01:53:24;;;;;;;;;9.00;6.00;;;;;20.07;45.65;101892.97;5077036;28;45574;-85
2021/08/25 01:55:50;;;;;;;;;8.75;6.75;;;;;20.03;46.12;101892.88;5058889;28;48012;-86
2021/08/25 01:58:15;;;;;;;;;7.25;4.25;;;;;19.99;46.23;101889.28;5079184;27;45312;-85
2021/08/25 02:00:41;;;;;;;;;7.25;6.00;;;;;19.99;46.01;101897.16;5079926;28;45426;-85
2021/08/25 02:03:07;;;;;;;;;6.00;5.50;;;;;19.99;46.36;101884.03;5078725;28;45556;-86
2021/08/25 02:05:32;;;;;;;;;8.00;7.25;;;;;19.97;46.22;101890.09;5077217;28;45423;-86
2021/08/25 02:07:58;;;;;;;;;8.00;6.00;;;;;19.94;46.57;101885.66;5078173;27;45339;-86
2021/08/25 02:10:23;;;;;;;;;5.50;5.50;;;;;19.91;46.66;101880.34;5077344;28;45323;-86
2021/08/25 02:12:49;;;;;;;;;5.75;5.75;;;;;19.89;46.30;101882.03;5077215;27;45430;-85
2021/08/25 02:15:14;;;;;;;;;6.00;5.75;;;;;19.88;46.54;101878.50;5076701;28;46077;-85
2021/08/25 02:17:42;;;;;;;;;7.50;5.50;;;;;19.85;46.99;101881.03;5076936;28;45340;-85
2021/08/25 02:20:08;;;;;;;;;6.75;5.25;;;;;19.83;47.08;101876.59;5077235;27;45271;-86
2021/08/25 02:22:34;;;;;;;;;10.00;7.00;;;;;19.78;46.87;101869.50;5076884;28;45508;-86
2021/08/25 02:24:59;;;;;;;;;6.00;6.00;;;;;19.78;46.67;101871.22;5076719;27;45750;-85
2021/08/25 02:27:25;;;;;;;;;8.75;6.50;;;;;19.74;47.03;101865.00;5060154;28;45677;-86
2021/08/25 02:29:55;;;;;;;;;6.25;6.25;;;;;19.73;47.35;101872.88;5065232;28;45334;-86
2021/08/25 02:32:26;;;;;;;;;6.50;4.25;;;;;19.70;47.10;101868.44;5076821;28;45353;-85
2021/08/25 02:34:52;;;;;;;;;8.00;6.25;;;;;19.65;47.17;101875.31;5078463;28;45418;-85
2021/08/25 02:37:18;;;;;;;;;7.25;5.00;;;;;19.63;47.40;101877.91;5081632;28;45157;-85
2021/08/25 02:39:45;;;;;;;;;5.25;4.50;;;;;19.62;47.63;101870.88;5084205;28;45337;-85
2021/08/25 02:42:11;;;;;;;;;7.50;5.25;;;;;19.60;47.76;101872.56;5088074;28;45288;-85
2021/08/25 02:44:36;;;;;;;;;6.00;6.00;;;;;19.58;47.51;101876.88;5076269;28;45898;-85
2021/08/25 02:47:03;;;;;;;;;8.25;7.75;;;;;19.57;47.57;101866.34;5058128;28;45428;-85
2021/08/25 02:49:28;;;;;;;;;6.00;6.00;;;;;19.56;47.80;101868.06;5077246;28;45216;-85
2021/08/25 02:51:54;;;;;;;;;5.00;5.00;;;;;19.55;48.08;101874.19;5077102;28;45248;-85
2021/08/25 02:54:19;;;;;;;;;7.75;5.50;;;;;19.54;47.69;101872.44;5076173;28;46380;-85
2021/08/25 02:56:45;;;;;;;;;8.75;6.00;;;;;19.55;47.72;101865.41;5080577;28;45205;-86
2021/08/25 02:59:11;;;;;;;;;6.00;6.00;;;;;19.52;48.13;101866.25;5060829;28;45328;-85
2021/08/25 03:01:36;;;;;;;;;8.50;7.75;;;;;19.48;48.47;101873.16;5076206;28;45509;-86
2021/08/25 03:04:02;;;;;;;;;7.25;6.25;;;;;19.44;48.70;101863.41;5075976;28;45402;-86
2021/08/25 03:06:27;;;;;;;;;6.50;5.50;;;;;19.44;48.37;101866.03;5075847;28;45418;-86
2021/08/25 03:08:53;;;;;;;;;7.00;6.00;;;;;19.46;48.18;101869.59;5076529;28;45312;-86
2021/08/25 03:11:19;;;;;;;;;6.00;6.00;;;;;19.46;48.82;101863.44;5076430;27;45337;-86
2021/08/25 03:13:44;;;;;;;;;8.00;6.00;;;;;19.45;48.27;101859.94;5076367;28;46274;-85
2021/08/25 03:16:10;;;;;;;;;5.25;5.00;;;;;19.46;48.36;101866.97;5077324;28;45389;-86
2021/08/25 03:18:36;;;;;;;;;8.25;6.75;;;;;19.43;48.33;101868.66;5076090;28;45332;-85
2021/08/25 03:21:02;;;;;;;;;5.75;5.50;;;;;19.42;48.46;101861.63;5058379;28;45376;-86
2021/08/25 03:23:27;;;;;;;;;8.50;7.75;;;;;19.39;48.80;101859.78;5075695;28;45244;-87
2021/08/25 03:25:53;;;;;;;;;7.50;5.25;;;;;19.37;49.12;101861.50;5081917;28;45166;-86
2021/08/25 03:28:19;;;;;;;;;6.75;6.25;;;;;19.38;48.73;101857.13;5077748;27;45246;-86
2021/08/25 03:30:45;;;;;;;;;7.00;6.25;;;;;19.38;48.70;101862.38;5076232;28;45442;-86
2021/08/25 03:33:11;;;;;;;;;6.75;6.25;;;;;19.36;48.73;101854.47;5057602;28;45583;-86
2021/08/25 03:35:37;;;;;;;;;6.00;6.00;;;;;19.37;49.04;101850.09;5075232;28;45184;-86
2021/08/25 03:38:03;;;;;;;;;7.25;7.25;;;;;19.33;48.68;101850.00;5057702;28;45399;-86
2021/08/25 03:40:28;;;;;;;;;9.75;7.25;;;;;19.32;49.11;101852.59;5075755;28;45653;-86
2021/08/25 03:42:54;;;;;;;;;7.25;7.00;;;;;19.29;49.16;101849.88;5057467;28;46155;-85
2021/08/25 03:45:20;;;;;;;;;8.00;7.00;;;;;19.25;49.35;101848.94;5058591;28;45422;-85
2021/08/25 03:47:45;;;;;;;;;7.25;7.25;;;;;19.23;49.35;101861.13;5078817;28;45399;-86
2021/08/25 03:50:11;;;;;;;;;8.00;6.00;;;;;19.20;49.43;101861.06;5081380;27;45466;-86
2021/08/25 03:52:37;;;;;;;;;5.00;5.00;;;;;19.16;49.47;101854.84;5083790;28;45308;-86
2021/08/25 03:55:03;;;;;;;;;3.25;3.00;;;;;19.15;49.46;101845.19;5061907;28;45417;-85
2021/08/25 03:57:28;;;;;;;;;9.25;7.75;;;;;19.16;49.42;101856.56;5078920;28;45356;-85
2021/08/25 03:59:54;;;;;;;;;5.25;4.50;;;;;19.15;49.65;101858.31;5080092;28;45176;-85
2021/08/25 04:02:19;;;;;;;;;5.00;5.00;;;;;19.16;49.68;101861.81;5078950;28;46137;-86
2021/08/25 04:04:45;;;;;;;;;6.50;6.00;;;;;19.10;49.21;101852.06;5078745;27;45350;-86
2021/08/25 04:07:12;;;;;;;;;7.00;6.00;;;;;19.09;49.62;101849.41;5079249;28;45403;-85
2021/08/25 04:09:38;;;;;;;;;9.50;5.75;;;;;19.09;49.96;101855.50;5078991;28;45343;-85
2021/08/25 04:12:03;;;;;;;;;7.00;6.00;;;;;19.09;49.92;101852.03;5078645;28;45298;-85
2021/08/25 04:14:29;;;;;;;;;5.50;5.50;;;;;19.06;49.54;101862.44;5081210;28;45413;-85
2021/08/25 04:16:55;;;;;;;;;8.00;7.50;;;;;19.05;49.83;101860.66;5081121;28;45366;-85
2021/08/25 04:19:20;;;;;;;;;6.00;6.00;;;;;19.03;49.90;101855.38;5076018;28;45426;-85
2021/08/25 04:21:46;;;;;;;;;10.00;7.25;;;;;19.03;49.83;101858.00;5060125;28;45528;-85
2021/08/25 04:24:12;;;;;;;;;6.50;6.50;;;;;19.01;50.41;101843.94;5064471;28;45268;-85
2021/08/25 04:26:37;;;;;;;;;9.00;6.25;;;;;19.01;50.14;101857.06;5074445;28;45161;-85
2021/08/25 04:29:03;;;;;;;;;7.75;6.25;;;;;18.97;50.18;101856.09;5059931;28;45223;-86
2021/08/25 04:31:28;;;;;;;;;7.75;5.75;;;;;18.96;50.01;101853.41;5057554;28;45987;-85
2021/08/25 04:33:54;;;;;;;;;10.00;8.00;;;;;18.95;50.54;101854.28;5058508;28;45358;-90
2021/08/25 04:36:19;;;;;;;;;5.25;5.25;;;;;18.94;50.36;101853.38;5058390;28;45581;-90
2021/08/25 04:38:45;;;;;;;;;7.50;7.00;;;;;18.92;50.43;101855.03;5060419;28;45280;-87
2021/08/25 04:41:11;;;;;;;;;7.25;7.00;;;;;18.91;50.31;101855.88;5041580;28;45355;-88
2021/08/25 04:43:36;;;;;;;;;8.00;7.25;;;;;18.90;50.21;101858.47;5058397;28;45339;-89
2021/08/25 04:46:02;;;;;;;;;8.00;8.00;;;;;18.86;50.42;101855.75;5058205;28;45295;-85
2021/08/25 04:48:28;;;;;;;;;10.50;7.25;;;;;18.87;50.45;101854.91;5058227;28;45314;-85
2021/08/25 04:50:54;;;;;;;;;6.75;6.75;;;;;18.81;50.35;101852.13;5060717;28;46045;-85
2021/08/25 04:53:19;;;;;;;;;7.75;7.00;;;;;18.80;50.65;101852.06;5062220;28;45340;-85
2021/08/25 04:55:45;;;;;;;;;8.00;7.00;;;;;18.77;50.64;101855.50;5058464;28;45290;-86
2021/08/25 04:58:11;;;;;;;;;7.25;7.25;;;;;18.75;50.60;101854.56;5058225;28;45323;-85
2021/08/25 05:00:36;;;;;;;;;7.75;7.75;;;;;18.72;50.76;101849.25;5057186;28;45827;-85
2021/08/25 05:03:02;;;;;;;;;7.50;7.25;;;;;18.70;50.75;101850.94;5039497;28;45337;-85
2021/08/25 05:05:28;;;;;;;;;11.75;8.75;;;;;18.67;51.40;101843.88;5039212;28;45252;-85
2021/08/25 05:07:54;;;;;;;;;7.75;7.75;;;;;18.69;50.88;101851.78;5039644;28;45641;-86
2021/08/25 05:10:19;;;;;;;;;9.00;6.00;;;;;18.69;50.83;101859.66;5057137;28;45699;-88
2021/08/25 05:12:45;;;;;;;;;8.00;6.50;;;;;18.69;51.11;101860.53;5057391;28;45243;-86
2021/08/25 05:15:11;;;;;;;;;8.50;8.00;;;;;18.69;51.43;101854.41;5057694;28;45421;-86
2021/08/25 05:17:37;;;;;;;;;8.00;8.00;;;;;18.66;50.59;101851.69;5058118;28;45185;-86
2021/08/25 05:20:05;;;;;;;;;8.25;7.25;;;;;18.66;51.06;101849.97;5042876;28;46942;-85
2021/08/25 05:22:30;;;;;;;;;9.00;8.25;;;;;18.67;50.92;101842.97;5059644;28;45308;-85
2021/08/25 05:24:56;;;;;;;;;10.00;7.00;;;;;18.67;51.10;101851.75;5058461;28;45387;-86
2021/08/25 05:27:22;;;;;;;;;7.25;7.25;;;;;18.68;51.28;101850.88;5059866;28;45385;-85
2021/08/25 05:29:48;;;;;;;;;10.50;8.25;;;;;18.68;51.16;101857.88;5058279;28;45392;-86
2021/08/25 05:32:13;;;;;;;;;11.50;9.25;;;;;18.67;51.20;101854.38;5059611;28;45232;-85
2021/08/25 05:34:39;;;;;;;;;7.75;7.75;;;;;18.69;51.33;101865.78;5058973;28;45413;-85
2021/08/25 05:37:04;;;;;;;;;11.00;7.50;;;;;18.72;50.83;101857.13;5056973;28;45353;-85
2021/08/25 05:39:30;;;;;;;;;7.25;7.00;;;;;18.74;51.29;101862.41;5056215;28;45474;-85
2021/08/25 05:41:56;;;;;;;;;8.00;8.00;;;;;18.74;51.05;101857.16;5056717;28;45289;-85
2021/08/25 05:44:21;;;;;;;;;8.25;7.25;;;;;18.72;51.30;101859.75;5056742;28;45337;-85
2021/08/25 05:46:47;;;;;;;;;8.00;7.00;;;;;18.73;51.20;101856.28;5057550;28;45412;-84
2021/08/25 05:49:12;;;;;;;;;10.00;8.25;;;;;18.72;51.30;101852.75;5041025;28;46877;-85
2021/08/25 05:51:38;;;;;;;;;7.25;7.25;;;;;18.72;51.11;101851.88;5059449;28;45412;-85
2021/08/25 05:54:04;;;;;;;;;10.75;9.00;;;;;18.74;50.93;101859.78;5059020;28;45453;-87
2021/08/25 05:56:31;;;;;;;;;9.50;6.75;;;;;18.76;51.42;101865.97;5061365;28;45441;-91
2021/08/25 05:58:56;;;;;;;;;8.00;8.00;;;;;18.79;51.28;101851.19;5058440;28;45356;-87
2021/08/25 06:01:24;;;;;;;;;13.50;8.00;;;;;18.80;50.95;101857.31;5038825;28;45375;-87
2021/08/25 06:03:50;;;;;;;;;7.00;7.00;;;;;18.82;50.96;101874.00;5056830;28;45185;-93
2021/08/25 06:06:16;;;;;;;;;11.75;10.75;;;;;18.81;51.15;101873.13;5060155;28;45348;-88
2021/08/25 06:08:41;;;;;;;;;11.00;9.00;;;;;18.84;51.01;101872.31;5060055;28;45968;-91
2021/08/25 06:11:07;;;;;;;;;11.25;10.25;;;;;18.89;51.24;101873.34;5064981;28;45260;-82
2021/08/25 06:13:33;;;;;;;;;7.25;7.25;;;;;18.92;51.29;101873.41;5061570;28;45318;-86
2021/08/25 06:15:59;;;;;;;;;9.00;8.00;;;;;18.92;51.03;101868.16;5058982;28;45308;-81
2021/08/25 06:18:24;;;;;;;;;11.00;8.25;;;;;18.90;51.30;101867.22;5056750;28;45410;-83
2021/08/25 06:20:51;;;;;;;;;8.00;6.00;;;;;18.90;51.34;101864.59;5065102;28;45450;-85
2021/08/25 06:23:17;;;;;;;;;8.75;7.75;;;;;18.93;51.17;101867.34;5055003;28;45415;-80
2021/08/25 06:25:43;;;;;;;;;9.25;9.25;;;;;18.95;50.95;101868.28;5055408;28;45465;-80
2021/08/25 06:28:09;;;;;;;;;9.00;6.50;;;;;18.96;51.38;101872.69;5056687;28;45279;-83
2021/08/25 06:30:35;;;;;;;;;12.25;11.00;;;;;19.00;51.50;101858.81;5054278;28;45382;-82
2021/08/25 06:33:00;;;;;;;;;10.50;7.25;;;;;19.05;50.89;101871.16;5066622;28;45367;-81
2021/08/25 06:35:26;;;;;;;;;8.25;6.25;;;;;19.07;50.98;101858.97;5075875;28;45339;-82
2021/08/25 06:37:52;;;;;;;;;9.75;8.25;;;;;19.10;50.88;101859.03;5048811;28;45579;-79
2021/08/25 06:40:18;;;;;;;;;7.00;7.00;;;;;19.16;50.76;101864.44;5055666;28;45296;-80
2021/08/25 06:42:44;;;;;;;;;9.00;7.25;;;;;19.18;50.38;101863.63;5056346;28;45406;-79
2021/08/25 06:45:10;;;;;;;;;9.75;7.25;;;;;19.19;50.44;101856.66;5038749;28;45606;-80
2021/08/25 06:47:36;;;;;;;;;7.50;7.00;;;;;19.22;50.80;101861.97;5056003;28;47526;-76
2021/08/25 06:50:04;;;;;;;;;8.50;7.25;;;;;19.25;50.78;101863.81;5055877;28;45474;-79
2021/08/25 06:52:30;;;;;;;;;9.25;7.00;;;;;19.28;50.15;101861.25;5055640;28;45575;-79
2021/08/25 06:54:56;;;;;;;;;10.75;7.00;;;;;19.28;50.35;101862.16;5056006;28;45243;-80
2021/08/25 06:57:21;;;;;;;;;9.75;7.75;;;;;19.31;49.66;101872.72;5055306;28;46234;-80
2021/08/25 06:59:47;;;;;;;;;9.75;8.75;;;;;19.29;49.95;101870.91;5055406;28;45375;-80
2021/08/25 07:02:12;;;;;;;;;10.75;10.00;;;;;19.24;49.97;101876.03;5056048;28;45387;-79
2021/08/25 07:04:45;;;;;;;;;7.00;7.00;;;;;19.23;50.25;101869.00;5055585;28;45284;-80
2021/08/25 07:07:11;;;;;;;;;7.00;7.00;;;;;19.20;50.51;101873.28;5055896;28;45317;-81
2021/08/25 07:09:36;;;;;;;;;10.25;7.50;;;;;19.18;50.33;101874.13;5055183;28;45577;-81
2021/08/25 07:12:02;;;;;;;;;8.00;8.00;;;;;19.20;50.18;101875.91;5055650;28;45357;-81
2021/08/25 07:14:28;;;;;;;;;12.00;9.00;;;;;19.20;50.57;101879.44;5054910;28;45641;-81
2021/08/25 07:16:53;;;;;;;;;9.50;7.50;;;;;19.20;50.36;101874.19;5054067;28;46156;-79
2021/08/25 07:19:19;;;;;;;;;8.75;8.00;;;;;19.23;50.31;101876.88;5055010;28;45376;-80
2021/08/25 07:21:45;;;;;;;;;8.00;8.00;;;;;19.24;50.42;101875.16;5055340;28;45462;-80
2021/08/25 07:24:10;;;;;;;;;7.00;7.00;;;;;19.26;50.17;101874.34;5059361;28;45481;-79
2021/08/25 07:26:36;;;;;;;;;7.25;6.25;;;;;19.29;50.66;101866.56;5058451;28;45311;-80
2021/08/25 07:29:01;;;;;;;;;13.75;8.75;;;;;19.31;50.06;101863.94;5058751;28;45528;-80
2021/08/25 07:31:27;;;;;;;;;8.00;8.00;;;;;19.33;50.55;101860.50;5057438;28;45343;-80
2021/08/25 07:33:53;;;;;;;;;8.50;7.25;;;;;19.36;50.24;101870.22;5059166;28;45398;-80
2021/08/25 07:36:18;;;;;;;;;10.25;8.50;;;;;19.39;50.51;101861.53;5058336;28;45331;-80
2021/08/25 07:38:44;;;;;;;;;7.75;7.00;;;;;19.45;50.64;101861.66;5057684;28;45346;-79
2021/08/25 07:41:10;;;;;;;;;16.50;12.25;;;;;19.48;50.32;101861.75;5076748;28;45317;-80
2021/08/25 07:43:35;;;;;;;;;12.25;10.00;;;;;19.51;50.65;101863.56;5059194;28;45498;-81
2021/08/25 07:46:01;;;;;;;;;8.50;8.25;;;;;19.53;50.10;101861.88;5057180;28;45694;-80
2021/08/25 07:48:27;;;;;;;;;11.00;8.50;;;;;19.55;50.49;101862.78;5057312;28;45192;-83
2021/08/25 07:50:53;;;;;;;;;8.25;7.00;;;;;19.55;50.41;101865.41;5042019;28;45341;-80
2021/08/25 07:53:18;;;;;;;;;6.25;6.25;;;;;19.57;50.00;101861.97;5059180;28;45698;-81
2021/08/25 07:55:44;;;;;;;;;10.25;9.00;;;;;19.59;50.14;101868.16;5060904;28;46045;-82
2021/08/25 07:58:10;;;;;;;;;8.00;7.50;;;;;19.61;49.91;101865.56;5061379;28;45861;-79
2021/08/25 08:00:36;;;;;;;;;8.00;8.00;;;;;19.63;50.31;101861.25;5058341;28;45371;-80
2021/08/25 08:03:01;;;;;;;;;10.25;8.75;;;;;19.66;50.12;101863.94;5060443;28;45328;-82
2021/08/25 08:05:27;;;;;;;;;11.75;9.00;;;;;19.70;49.78;101860.56;5059965;28;46859;-80
2021/08/25 08:07:53;;;;;;;;;5.00;4.50;;;;;19.72;49.89;101855.31;5073467;28;45507;-80
2021/08/25 08:10:18;;;;;;;;;7.25;7.00;;;;;19.76;50.09;101858.06;5059561;28;45308;-84
2021/08/25 08:12:44;;;;;;;;;9.00;6.00;;;;;19.77;50.07;101849.31;5043495;28;45243;-82
2021/08/25 08:15:11;;;;;;;;;7.25;6.75;;;;;19.78;50.10;101853.72;5041098;28;46976;-83
2021/08/25 08:17:38;;;;;;;;;7.75;6.25;;;;;19.80;50.23;101841.53;5065482;28;45408;-88
2021/08/25 08:20:05;;;;;;;;;10.75;7.00;;;;;19.84;50.02;101847.72;5068500;28;45430;-83
2021/08/25 08:22:30;;;;;;;;;8.75;8.00;;;;;19.85;49.68;101848.59;5063332;28;45539;-88
2021/08/25 08:24:56;;;;;;;;;8.00;7.75;;;;;19.87;49.87;101844.31;5042947;28;47040;-90
2021/08/25 08:27:22;;;;;;;;;9.00;7.00;;;;;19.90;49.92;101845.25;5059396;28;45407;-90
2021/08/25 08:29:48;;;;;;;;;13.75;8.00;;;;;19.90;49.88;101836.50;5062290;28;45399;-90
2021/08/25 08:32:14;;;;;;;;;9.50;9.00;;;;;19.93;49.62;101839.19;5060499;28;45638;-90
2021/08/25 08:34:39;;;;;;;;;8.75;8.75;;;;;19.96;50.02;101839.25;5042515;28;46347;-91
2021/08/25 08:37:05;;;;;;;;;8.25;6.75;;;;;19.98;50.10;101828.81;5073745;28;45260;-86
2021/08/25 08:39:31;;;;;;;;;9.75;8.00;;;;;20.01;50.26;101835.00;5075721;28;45325;-85
2021/08/25 08:41:58;;;;;;;;;9.75;8.75;;;;;20.03;50.01;101835.03;5064351;28;45590;-87
2021/08/25 08:44:26;;;;;;;;;10.50;9.50;;;;;20.10;49.97;101834.31;5043168;28;46984;-82
2021/08/25 08:46:52;;;;;;;;;8.75;7.50;;;;;20.10;49.97;101837.84;5044686;28;45915;-81
2021/08/25 08:49:18;;;;;;;;;7.25;6.25;;;;;20.16;49.86;101831.81;5048695;28;45295;-84
2021/08/25 08:51:45;;;;;;;;;9.00;8.50;;;;;20.22;49.55;101837.19;5058182;28;45359;-81
2021/08/25 08:54:11;;;;;;;;;7.75;7.25;;;;;20.25;49.73;101841.63;5061968;28;45509;-81
2021/08/25 08:56:37;;;;;;;;;7.50;7.25;;;;;20.28;49.86;101846.09;5057891;28;45354;-80
2021/08/25 08:59:04;;;;;;;;;7.00;7.00;;;;;20.28;49.63;101839.06;5059717;28;45639;-81
2021/08/25 09:01:30;;;;;;;;;11.75;9.50;;;;;20.32;49.74;101833.03;5060704;28;45419;-80
2021/08/25 09:03:57;;;;;;;;;9.50;8.50;;;;;20.38;49.21;101834.91;5056664;28;45402;-79
2021/08/25 09:06:49;;;;;;;;;6.75;6.75;;;;;20.40;49.38;101841.09;5056328;28;45378;-79
2021/08/25 09:09:15;;;;;;;;;7.75;7.75;;;;;20.43;49.54;101835.88;5054690;28;45387;-79
2021/08/25 09:11:51;;;;;;;;;11.00;8.75;;;;;20.48;49.66;101833.34;5055996;28;45384;-80
2021/08/25 09:14:18;;;;;;;;;8.25;7.25;;;;;20.50;49.41;101832.53;5057374;28;45481;-80
2021/08/25 09:16:44;;;;;;;;;11.00;9.00;;;;;20.53;49.51;101832.56;5057789;28;45387;-80
2021/08/25 09:19:16;;;;;;;;;8.00;8.00;;;;;20.59;48.97;101831.81;5051940;28;45488;-84
2021/08/25 09:21:49;;;;;;;;;12.50;9.25;;;;;20.63;49.23;101824.84;5042759;28;45515;-85
2021/08/25 09:24:20;;;;;;;;;9.00;7.25;;;;;20.66;48.92;101824.91;5056388;28;45483;-85
2021/08/25 09:27:07;;;;;;;;;9.00;7.50;;;;;20.68;48.93;101818.81;5037378;28;45676;-85
2021/08/25 09:29:35;;;;;;;;;10.00;9.00;;;;;20.71;49.06;101824.16;5059405;28;45367;-82
2021/08/25 09:32:01;;;;;;;;;8.50;8.25;;;;;20.76;48.69;101823.41;5038969;28;45500;-81
2021/08/25 09:34:29;;;;;;;;;10.00;8.00;;;;;20.80;48.77;101828.75;5056456;28;46402;-81
2021/08/25 09:37:12;;;;;;;;;7.00;7.00;;;;;20.83;48.83;101823.53;5056921;28;45820;-81
2021/08/25 09:39:50;;;;;;;;;11.75;9.00;;;;;20.86;47.82;101820.94;5056790;28;45312;-81
2021/08/25 09:42:19;;;;;;;;;7.75;7.75;;;;;20.91;47.66;101812.25;5057739;28;45438;-82
2021/08/25 09:44:46;;;;;;;;;7.75;7.75;;;;;20.92;47.85;101821.94;5057851;28;46180;-82
2021/08/25 09:47:40;;;;;;;;;;;;;;;;;;;;;
2021/08/25 09:50:07;;;;;;;;;7.00;7.00;;;;;21.00;47.10;101812.41;5057722;28;68177;-83
2021/08/25 09:52:34;;;;;;;;;7.75;6.25;;;;;21.02;47.64;101810.72;5057479;28;45414;-83
2021/08/25 09:55:00;;;;;;;;;7.50;7.50;;;;;21.05;47.43;101810.78;5057610;28;45983;-87
2021/08/25 09:57:39;;;;;;;;;10.00;6.25;;;;;21.09;46.56;101806.44;5037903;28;45339;-84
2021/08/25 10:00:07;;;;;;;;;6.25;6.25;;;;;21.13;46.55;101797.72;5040113;28;45358;-84
2021/08/25 10:02:34;;;;;;;;;8.50;7.75;;;;;21.16;46.51;101797.78;5058249;28;45644;-85
2021/08/25 10:05:00;;;;;;;;;8.00;7.50;;;;;21.17;46.54;101800.41;5056890;28;46162;-85
2021/08/25 10:07:26;;;;;;;;;8.75;7.50;;;;;21.22;46.97;101795.22;5060095;28;46008;-85
2021/08/25 10:09:53;;;;;;;;;7.25;6.00;;;;;21.25;46.52;101792.66;5057631;28;45427;-85
2021/08/25 10:12:19;;;;;;;;;8.25;7.00;;;;;21.24;46.53;101790.00;5056450;28;45917;-85
2021/08/25 10:14:45;;;;;;;;;7.25;7.25;;;;;21.26;45.98;101793.56;5056058;28;46045;-84
2021/08/25 10:17:37;;;;;;;;;8.25;8.25;;;;;21.29;45.83;101793.59;5057327;28;45323;-85
2021/08/25 10:20:25;;;;;;;;;10.25;8.00;;;;;21.33;44.78;101790.16;5056845;28;45386;-85
2021/08/25 10:22:54;;;;;;;;;8.50;7.00;;;;;21.36;45.40;101781.41;5038493;28;45485;-85
2021/08/25 10:25:20;;;;;;;;;8.25;7.50;;;;;21.40;44.55;101777.97;5037470;28;46895;-85
2021/08/25 10:28:06;;;;;;;;;8.50;8.50;;;;;21.46;44.16;101778.03;5055640;28;45356;-85
2021/08/25 10:30:47;;;;;;;;;8.50;7.00;;;;;21.47;44.39;101775.44;5056233;28;45620;-85
2021/08/25 10:33:14;;;;;;;;;6.75;5.75;;;;;21.52;43.49;101772.88;5058053;28;45526;-86
2021/08/25 10:35:42;;;;;;;;;10.50;9.25;;;;;21.58;44.46;101767.69;5041587;28;46558;-85
2021/08/25 10:38:23;;;;;;;;;11.25;8.50;;;;;21.62;43.97;101764.28;5060716;28;45371;-85
2021/08/25 10:40:51;;;;;;;;;7.50;6.50;;;;;21.65;44.37;101768.69;5057579;28;45345;-84
2021/08/25 10:43:40;;;;;;;;;10.00;9.00;;;;;21.71;43.84;101763.50;5060288;28;45387;-85
2021/08/25 10:46:08;;;;;;;;;16.50;13.25;;;;;21.73;43.99;101763.53;5056480;28;45398;-85
2021/08/25 10:48:37;;;;;;;;;9.50;8.75;;;;;21.82;44.07;101770.66;5056589;28;45687;-86
2021/08/25 10:51:02;;;;;;;;;7.00;6.00;;;;;21.84;43.75;101754.03;5056936;28;45278;-85
2021/08/25 10:53:28;;;;;;;;;10.00;9.00;;;;;21.89;43.51;101754.09;5039237;28;45510;-85
2021/08/25 10:56:23;;;;;;;;;8.00;8.00;;;;;21.93;43.47;101748.88;5057489;28;45454;-85
2021/08/25 10:58:58;;;;;;;;;11.50;9.25;;;;;21.97;43.13;101751.56;5042303;28;45903;-85
2021/08/25 11:01:33;;;;;;;;;7.50;6.50;;;;;21.99;42.62;101752.44;5059606;28;45331;-85
2021/08/25 11:04:11;;;;;;;;;10.00;9.75;;;;;22.03;42.25;101744.56;5047383;28;45526;-86
2021/08/25 11:06:41;;;;;;;;;10.00;8.75;;;;;22.07;42.64;101750.81;5041353;28;46300;-85
2021/08/25 11:09:20;;;;;;;;;8.25;8.00;;;;;22.10;42.98;101738.53;5039913;28;45466;-85
2021/08/25 11:11:50;;;;;;;;;9.00;9.00;;;;;22.15;42.60;101735.03;5038874;28;45305;-85
2021/08/25 11:14:19;;;;;;;;;8.00;8.00;;;;;22.17;42.40;101734.22;5041504;28;45254;-86
2021/08/25 11:16:45;;;;;;;;;9.25;8.00;;;;;22.20;42.31;101720.16;5040493;28;46166;-85
2021/08/25 11:19:23;;;;;;;;;8.50;8.50;;;;;22.22;42.23;101729.84;5045019;28;45463;-85
2021/08/25 11:21:49;;;;;;;;;8.00;6.50;;;;;22.28;42.19;101721.13;5049128;28;45342;-85
2021/08/25 11:24:15;;;;;;;;;6.00;6.00;;;;;22.32;42.50;101722.94;5056507;28;45550;-84
2021/08/25 11:26:41;;;;;;;;;8.50;5.75;;;;;22.36;42.36;101721.22;5067498;28;45457;-85